Time;durP1;ratioP1;P1;durP2;ratioP2;P2;SDS_P1;SDS_P2;PMS_P1;PMS_P2;Temp;Humidity;BMP_temperature;BMP_pressure;BME280_temperature;BME280_humidity;BME280_pressure;Samples;Min_cycle;Max_cycle;Signal;HPM_P1;HPM_P2
2022/05/27 00:01:26;;;;;;;2.90;2.70;;;14.80;99.90;;;;;;5014950;28;20756;-56
2022/05/27 00:03:52;;;;;;;3.58;2.80;;;14.80;99.90;;;;;;5016443;28;20237;-56
2022/05/27 00:06:19;;;;;;;2.60;2.40;;;14.60;99.90;;;;;;5015780;28;20599;-57
2022/05/27 00:08:45;;;;;;;2.83;2.63;;;14.90;99.90;;;;;;5010211;28;20242;-56
2022/05/27 00:11:15;;;;;;;2.97;2.78;;;14.60;99.90;;;;;;5014478;28;20549;-56
2022/05/27 00:13:41;;;;;;;2.30;2.20;;;14.60;99.90;;;;;;5014926;28;20183;-56
2022/05/27 00:16:07;;;;;;;2.80;2.47;;;14.60;99.90;;;;;;5014141;28;20306;-56
2022/05/27 00:18:33;;;;;;;2.47;2.28;;;14.70;99.90;;;;;;5013292;28;20637;-56
2022/05/27 00:20:59;;;;;;;2.67;2.47;;;14.90;99.90;;;;;;5015232;28;20249;-56
2022/05/27 00:23:25;;;;;;;2.57;2.37;;;14.90;99.90;;;;;;5015661;28;20652;-56
2022/05/27 00:25:51;;;;;;;2.83;2.63;;;14.60;99.90;;;;;;5014414;28;20191;-56
2022/05/27 00:28:16;;;;;;;2.60;2.40;;;14.50;99.90;;;;;;5014018;28;20233;-56
2022/05/27 00:30:42;;;;;;;3.27;2.17;;;14.50;99.90;;;;;;5014697;28;20186;-56
2022/05/27 00:33:08;;;;;;;2.72;2.50;;;14.50;99.90;;;;;;5015238;28;20231;-56
2022/05/27 00:35:34;;;;;;;3.47;2.40;;;14.50;99.90;;;;;;5013999;28;20264;-56
2022/05/27 00:38:00;;;;;;;2.40;2.20;;;14.50;99.90;;;;;;5012850;28;20481;-56
2022/05/27 00:40:33;;;;;;;3.13;2.13;;;14.50;99.90;;;;;;5012997;28;20191;-56
2022/05/27 00:42:59;;;;;;;3.30;2.40;;;14.60;99.90;;;;;;5012840;28;20194;-56
2022/05/27 00:45:25;;;;;;;2.73;2.17;;;14.40;99.90;;;;;;5013566;28;20194;-57
2022/05/27 00:47:54;;;;;;;2.67;2.10;;;14.50;99.90;;;;;;5013631;28;20225;-56
2022/05/27 00:50:28;;;;;;;2.63;2.40;;;14.80;99.90;;;;;;5015601;28;20538;-56
2022/05/27 00:52:55;;;;;;;2.55;2.35;;;14.40;99.90;;;;;;5014082;28;20186;-57
2022/05/27 00:55:26;;;;;;;2.47;2.25;;;14.50;99.90;;;;;;5012698;28;20270;-56
2022/05/27 00:58:03;;;;;;;2.80;2.60;;;14.60;99.90;;;;;;5011572;28;20210;-56
2022/05/27 01:00:29;;;;;;;3.10;2.80;;;14.30;99.90;;;;;;5012121;28;20186;-56
2022/05/27 01:02:55;;;;;;;2.50;2.30;;;14.50;99.90;;;;;;5013829;28;20187;-56
2022/05/27 01:05:23;;;;;;;2.33;2.13;;;14.60;99.90;;;;;;5014451;28;20649;-56
2022/05/27 01:07:57;;;;;;;2.38;2.17;;;14.50;99.90;;;;;;5012885;28;20898;-56
2022/05/27 01:10:25;;;;;;;2.40;2.20;;;14.30;99.90;;;;;;5014428;28;20217;-56
2022/05/27 01:13:24;;;;;;;2.50;2.30;;;14.40;99.90;;;;;;5012593;28;20187;-56
2022/05/27 01:16:05;;;;;;;2.90;2.70;;;14.40;99.90;;;;;;5012928;28;20193;-56
2022/05/27 01:21:41;;;;;;;2.45;2.13;;;14.30;99.90;;;;;;5012291;28;20194;-56
2022/05/27 01:24:31;;;;;;;2.47;2.38;;;14.00;99.90;;;;;;5014874;28;20666;-56
2022/05/27 01:27:41;;;;;;;2.00;1.90;;;14.00;99.90;;;;;;5003186;28;20246;-57
2022/05/27 01:30:27;;;;;;;2.45;2.25;;;14.00;99.90;;;;;;5007546;28;20655;-56
2022/05/27 01:33:08;;;;;;;2.60;2.40;;;14.20;99.90;;;;;;5010955;28;20197;-56
2022/05/27 01:35:42;;;;;;;3.42;2.20;;;14.00;99.90;;;;;;5010971;28;20190;-57
2022/05/27 01:38:32;;;;;;;3.28;2.20;;;14.10;99.90;;;;;;5012694;28;20206;-57
2022/05/27 01:40:57;;;;;;;3.10;2.72;;;14.00;99.90;;;;;;5014047;28;20175;-56
2022/05/27 01:43:33;;;;;;;2.90;2.70;;;14.00;99.90;;;;;;5013695;28;20194;-57
2022/05/27 01:46:11;;;;;;;2.70;2.47;;;14.10;99.90;;;;;;5013475;28;20197;-56
2022/05/27 01:49:16;;;;;;;2.22;2.13;;;13.90;99.90;;;;;;5012809;28;20252;-56
2022/05/27 01:52:02;;;;;;;2.35;2.25;;;14.10;99.90;;;;;;5014344;28;20613;-56
2022/05/27 01:54:50;;;;;;;2.17;2.00;;;13.80;99.90;;;;;;5009605;28;20238;-57
2022/05/27 01:57:29;;;;;;;2.50;2.20;;;13.80;99.90;;;;;;5008714;28;20199;-56
2022/05/27 02:00:28;;;;;;;2.97;2.35;;;13.90;99.90;;;;;;5011626;28;20186;-56
2022/05/27 02:03:05;;;;;;;2.50;2.35;;;14.10;99.90;;;;;;5013114;28;20325;-56
2022/05/27 02:05:55;;;;;;;2.30;2.10;;;13.60;99.90;;;;;;5012355;28;20237;-57
2022/05/27 02:08:30;;;;;;;2.35;2.15;;;13.90;99.90;;;;;;5005455;28;20206;-57
2022/05/27 02:11:04;;;;;;;2.38;2.17;;;13.90;99.90;;;;;;5010087;28;20193;-57
2022/05/27 02:13:54;;;;;;;2.03;1.92;;;13.70;99.90;;;;;;5005545;28;20619;-56
2022/05/27 02:16:51;;;;;;;2.45;2.25;;;13.80;99.90;;;;;;5006366;28;20606;-57
2022/05/27 02:19:25;;;;;;;2.47;2.25;;;13.80;99.90;;;;;;5016676;28;20599;-56
2022/05/27 02:21:58;;;;;;;2.28;2.08;;;13.80;99.90;;;;;;5012740;28;20556;-56
2022/05/27 02:24:37;;;;;;;2.60;2.40;;;13.90;99.90;;;;;;5012406;28;20195;-56
2022/05/27 02:27:21;;;;;;;2.85;2.60;;;13.70;99.90;;;;;;5010390;28;20575;-56
2022/05/27 02:29:51;;;;;;;1.92;1.83;;;13.80;99.90;;;;;;5012366;28;20224;-56
2022/05/27 02:32:25;;;;;;;2.60;2.40;;;13.60;99.90;;;;;;5013862;28;20175;-56
2022/05/27 02:35:10;;;;;;;2.20;2.00;;;13.70;99.90;;;;;;5012210;28;20523;-56
2022/05/27 02:37:37;;;;;;;3.55;2.42;;;13.50;99.90;;;;;;5011785;28;20190;-56
2022/05/27 02:40:07;;;;;;;2.30;2.10;;;13.90;99.90;;;;;;5012445;28;20233;-57
2022/05/27 02:42:44;;;;;;;2.38;2.17;;;13.60;99.90;;;;;;5013700;28;20198;-56
2022/05/27 02:45:31;;;;;;;3.15;2.50;;;13.80;99.90;;;;;;5010751;28;20765;-57
2022/05/27 02:48:27;;;;;;;3.78;2.30;;;13.70;99.90;;;;;;5011757;28;20712;-56
2022/05/27 02:50:56;;;;;;;2.72;2.53;;;13.70;99.90;;;;;;5013870;28;20191;-56
2022/05/27 02:53:45;;;;;;;2.20;2.00;;;13.90;99.90;;;;;;5011082;28;20186;-56
2022/05/27 02:56:25;;;;;;;2.35;2.25;;;13.50;99.90;;;;;;5012774;28;20487;-56
2022/05/27 02:58:52;;;;;;;2.22;2.03;;;13.60;99.90;;;;;;5012517;28;20221;-56
2022/05/27 03:01:18;;;;;;;1.98;1.80;;;13.50;99.90;;;;;;5012625;28;20179;-56
2022/05/27 03:03:43;;;;;;;2.10;1.80;;;13.50;99.90;;;;;;5013008;28;20183;-56
2022/05/27 03:06:27;;;;;;;2.97;2.40;;;13.50;99.90;;;;;;5012270;28;20191;-56
2022/05/27 03:09:10;;;;;;;2.80;2.55;;;13.60;99.90;;;;;;5011178;28;20301;-56
2022/05/27 03:12:05;;;;;;;2.15;2.00;;;13.50;99.90;;;;;;5013626;28;20187;-56
2022/05/27 03:15:01;;;;;;;4.28;2.25;;;13.60;99.90;;;;;;5010346;28;20713;-56
2022/05/27 03:18:02;;;;;;;2.83;2.08;;;13.80;99.90;;;;;;5007258;28;20591;-56
2022/05/27 03:20:44;;;;;;;2.83;1.90;;;14.00;99.90;;;;;;5009743;28;20256;-56
2022/05/27 03:23:16;;;;;;;2.17;1.98;;;13.80;99.90;;;;;;5012204;28;20538;-56
2022/05/27 03:26:00;;;;;;;3.25;2.35;;;14.00;99.90;;;;;;5012614;28;20656;-57
2022/05/27 03:28:53;;;;;;;2.22;2.03;;;14.00;99.90;;;;;;5006062;28;20310;-56
2022/05/27 03:31:38;;;;;;;2.22;2.10;;;14.10;99.90;;;;;;5011490;28;20193;-56
2022/05/27 03:34:29;;;;;;;2.58;2.35;;;14.00;99.90;;;;;;5007202;28;20187;-56
2022/05/27 03:36:58;;;;;;;2.20;2.00;;;13.60;99.90;;;;;;5011292;28;20217;-56
2022/05/27 03:39:39;;;;;;;2.00;1.90;;;14.10;99.90;;;;;;5011530;28;20202;-57
2022/05/27 03:42:08;;;;;;;2.72;2.53;;;13.90;99.90;;;;;;5007631;28;20536;-56
2022/05/27 03:44:34;;;;;;;2.20;2.00;;;14.10;99.90;;;;;;5012756;28;20297;-56
2022/05/27 03:47:01;;;;;;;2.28;2.08;;;14.10;99.90;;;;;;5010902;28;20211;-56
2022/05/27 03:49:27;;;;;;;2.42;2.22;;;14.10;99.90;;;;;;5011921;28;20207;-56
2022/05/27 03:51:52;;;;;;;2.80;2.60;;;14.20;99.90;;;;;;5026797;28;20194;-56
2022/05/27 03:54:18;;;;;;;4.77;2.47;;;14.10;99.90;;;;;;5011796;28;20191;-57
2022/05/27 03:56:43;;;;;;;2.90;2.20;;;14.30;99.90;;;;;;5007926;28;20614;-57
2022/05/27 03:59:12;;;;;;;2.07;1.90;;;14.40;99.90;;;;;;5009332;28;20672;-56
2022/05/27 04:01:41;;;;;;;2.90;2.33;;;14.40;99.90;;;;;;5010503;28;20257;-56
2022/05/27 04:04:09;;;;;;;2.85;2.60;;;14.40;99.90;;;;;;5010909;28;20179;-57
2022/05/27 04:06:34;;;;;;;2.67;2.47;;;14.30;99.90;;;;;;5011152;28;20245;-56
2022/05/27 04:09:00;;;;;;;2.77;2.57;;;14.40;99.90;;;;;;5008495;28;20206;-56
2022/05/27 04:11:27;;;;;;;2.10;1.90;;;14.30;99.90;;;;;;5010959;28;20640;-56
2022/05/27 04:13:54;;;;;;;3.40;3.15;;;14.70;99.90;;;;;;5009531;28;20183;-56
2022/05/27 04:16:19;;;;;;;2.28;2.08;;;14.50;99.90;;;;;;5011162;28;20186;-56
2022/05/27 04:18:45;;;;;;;2.60;2.23;;;14.60;99.90;;;;;;5010382;28;20595;-57
2022/05/27 04:21:11;;;;;;;3.40;2.00;;;14.70;99.90;;;;;;5012468;28;20183;-56
2022/05/27 04:23:37;;;;;;;4.20;2.10;;;14.70;99.90;;;;;;5010927;28;20222;-56
2022/05/27 04:26:03;;;;;;;3.00;2.30;;;14.70;99.90;;;;;;5011003;28;20541;-56
2022/05/27 04:28:29;;;;;;;2.42;2.25;;;14.90;99.90;;;;;;5007755;28;20278;-56
2022/05/27 04:30:54;;;;;;;3.67;2.40;;;15.00;99.90;;;;;;5007971;28;20271;-57
2022/05/27 04:33:21;;;;;;;3.50;2.23;;;14.80;99.90;;;;;;5010258;28;20198;-57
2022/05/27 04:35:46;;;;;;;2.53;2.33;;;15.20;99.90;;;;;;5009072;28;20692;-56
2022/05/27 04:38:12;;;;;;;2.67;2.47;;;15.20;99.90;;;;;;5011011;28;20214;-56
2022/05/27 04:40:38;;;;;;;2.80;2.40;;;15.30;99.90;;;;;;5007345;28;20610;-57
2022/05/27 04:43:04;;;;;;;2.87;2.00;;;15.00;99.90;;;;;;5026196;28;20231;-57
2022/05/27 04:45:30;;;;;;;2.83;2.33;;;15.20;99.90;;;;;;5009642;28;20196;-56
2022/05/27 04:47:56;;;;;;;2.92;2.10;;;14.80;99.90;;;;;;5009971;28;20283;-56
2022/05/27 04:50:21;;;;;;;4.43;2.10;;;15.10;99.90;;;;;;5011393;28;20210;-56
2022/05/27 04:52:47;;;;;;;4.20;2.60;;;15.60;99.90;;;;;;5009933;28;20611;-57
2022/05/27 04:55:15;;;;;;;3.53;2.10;;;15.20;99.90;;;;;;5011291;28;20557;-57
2022/05/27 04:57:47;;;;;;;2.60;2.35;;;15.50;99.90;;;;;;5007880;28;20496;-56
2022/05/27 05:00:16;;;;;;;3.42;2.47;;;15.30;99.90;;;;;;5026572;28;20780;-56
2022/05/27 05:02:42;;;;;;;2.45;2.25;;;15.60;99.90;;;;;;5010754;28;20203;-56
2022/05/27 05:05:09;;;;;;;3.33;2.47;;;15.50;99.90;;;;;;5009168;28;20636;-56
2022/05/27 05:07:37;;;;;;;2.85;2.53;;;15.60;99.90;;;;;;5010428;28;20242;-57
2022/05/27 05:10:03;;;;;;;3.65;2.28;;;15.80;99.90;;;;;;5008566;28;20175;-56
2022/05/27 05:12:28;;;;;;;2.63;2.05;;;15.80;99.90;;;;;;5009361;28;20187;-57
2022/05/27 05:14:54;;;;;;;4.47;2.97;;;15.70;99.90;;;;;;5010406;28;20221;-56
2022/05/27 05:17:21;;;;;;;3.40;3.10;;;15.90;99.90;;;;;;5010585;28;20545;-56
2022/05/27 05:19:47;;;;;;;3.60;2.40;;;16.20;99.90;;;;;;5006982;28;20216;-57
2022/05/27 05:22:13;;;;;;;2.33;2.13;;;16.20;99.90;;;;;;5009166;28;20186;-56
2022/05/27 05:24:39;;;;;;;2.57;2.13;;;16.10;99.90;;;;;;5010660;28;20582;-56
2022/05/27 05:27:06;;;;;;;3.15;2.30;;;16.40;99.90;;;;;;5009872;28;20473;-56
2022/05/27 05:29:31;;;;;;;2.47;2.28;;;16.40;99.90;;;;;;5009238;28;20216;-57
2022/05/27 05:31:57;;;;;;;2.40;2.20;;;16.60;99.90;;;;;;5006855;28;20179;-57
2022/05/27 05:34:22;;;;;;;3.07;2.50;;;16.80;99.90;;;;;;5010423;28;20656;-56
2022/05/27 05:36:48;;;;;;;2.40;2.20;;;16.80;99.90;;;;;;5007748;28;20210;-57
2022/05/27 05:39:13;;;;;;;4.47;2.97;;;16.90;99.90;;;;;;5009119;28;20206;-57
2022/05/27 05:41:41;;;;;;;4.40;2.40;;;17.00;99.90;;;;;;5008414;28;20194;-57
2022/05/27 05:44:09;;;;;;;2.83;2.63;;;16.80;99.90;;;;;;5009930;28;20183;-57
2022/05/27 05:46:37;;;;;;;2.78;2.58;;;17.10;99.90;;;;;;5006361;28;20258;-57
2022/05/27 05:49:05;;;;;;;4.65;3.08;;;17.30;99.90;;;;;;5008462;28;20207;-56
2022/05/27 05:51:31;;;;;;;3.00;2.65;;;17.20;99.90;;;;;;5010658;28;20237;-57
2022/05/27 05:53:57;;;;;;;2.40;2.20;;;17.10;99.90;;;;;;5010371;28;20202;-56
2022/05/27 05:56:22;;;;;;;2.50;2.37;;;17.30;99.90;;;;;;5010318;28;20210;-56
2022/05/27 05:58:50;;;;;;;2.40;2.20;;;17.20;99.90;;;;;;5008458;28;20293;-57
2022/05/27 06:01:16;;;;;;;2.45;2.25;;;17.30;99.90;;;;;;5009872;28;20289;-56
2022/05/27 06:03:42;;;;;;;3.17;2.33;;;17.30;99.90;;;;;;5010271;28;20707;-56
2022/05/27 06:06:07;;;;;;;3.20;2.50;;;17.40;99.90;;;;;;5009513;28;20190;-57
2022/05/27 06:08:33;;;;;;;3.50;2.30;;;17.40;99.90;;;;;;5009673;28;20230;-57
2022/05/27 06:10:59;;;;;;;2.40;2.20;;;17.60;99.90;;;;;;5008238;28;20230;-56
2022/05/27 06:13:26;;;;;;;3.97;2.70;;;17.40;99.80;;;;;;5010052;28;20785;-57
2022/05/27 06:15:52;;;;;;;3.38;2.53;;;17.60;99.80;;;;;;5010420;28;20182;-57
2022/05/27 06:18:18;;;;;;;2.30;2.10;;;17.40;99.80;;;;;;5013058;28;20206;-57
2022/05/27 06:20:43;;;;;;;3.90;2.70;;;17.50;99.70;;;;;;5013496;28;20191;-57
2022/05/27 06:23:09;;;;;;;3.33;2.70;;;17.70;99.90;;;;;;5013898;28;20187;-57
2022/05/27 06:25:35;;;;;;;3.00;2.70;;;17.50;99.80;;;;;;5013334;28;20198;-57
2022/05/27 06:36:15;;;;;;;3.25;2.70;;;17.70;99.70;;;;;;5012118;28;20229;-56
2022/05/27 06:38:40;;;;;;;3.25;2.33;;;17.40;99.90;;;;;;5009418;28;20211;-56
2022/05/27 06:41:06;;;;;;;2.87;2.67;;;17.40;99.80;;;;;;5013354;28;20550;-57
2022/05/27 06:43:32;;;;;;;3.00;2.53;;;17.60;99.90;;;;;;5012990;28;20206;-57
2022/05/27 06:45:59;;;;;;;2.90;2.50;;;17.50;99.80;;;;;;5012170;28;20190;-57
2022/05/27 06:48:26;;;;;;;2.72;2.50;;;17.50;99.80;;;;;;5010281;28;20233;-59
2022/05/27 06:50:51;;;;;;;3.17;2.65;;;17.60;99.80;;;;;;5011428;28;20175;-58
2022/05/27 06:53:17;;;;;;;3.87;2.80;;;17.80;99.80;;;;;;5012789;28;20183;-57
2022/05/27 06:55:50;;;;;;;2.93;2.60;;;17.70;99.60;;;;;;5013048;28;20187;-56
2022/05/27 06:58:16;;;;;;;4.15;2.50;;;17.70;99.80;;;;;;5013307;28;20211;-63
2022/05/27 07:00:42;;;;;;;5.00;2.83;;;17.70;99.60;;;;;;5011606;28;20735;-56
2022/05/27 07:03:08;;;;;;;3.00;2.63;;;17.80;99.60;;;;;;5011133;28;20241;-60
2022/05/27 07:05:35;;;;;;;3.53;2.73;;;17.50;99.90;;;;;;5012713;28;20425;-60
2022/05/27 07:08:03;;;;;;;3.80;3.15;;;17.60;99.90;;;;;;5012016;28;20214;-58
2022/05/27 07:10:28;;;;;;;2.95;2.75;;;17.70;99.90;;;;;;5010572;28;20233;-59
2022/05/27 07:12:59;;;;;;;3.00;2.70;;;17.50;99.90;;;;;;5009440;28;20586;-59
2022/05/27 07:15:27;;;;;;;3.08;2.40;;;17.70;99.90;;;;;;5012106;28;20209;-59
2022/05/27 07:17:53;;;;;;;3.78;2.72;;;17.70;99.90;;;;;;5009568;28;20285;-60
2022/05/27 07:20:19;;;;;;;7.67;3.00;;;17.70;99.90;;;;;;5009349;28;20261;-59
2022/05/27 07:22:44;;;;;;;4.73;4.33;;;17.80;99.90;;;;;;5012279;28;20234;-59
2022/05/27 07:25:13;;;;;;;3.20;2.90;;;17.70;99.90;;;;;;5013109;28;20429;-59
2022/05/27 07:27:40;;;;;;;5.28;3.30;;;17.70;99.90;;;;;;5010531;28;20207;-59
2022/05/27 07:30:07;;;;;;;3.85;2.75;;;17.60;99.90;;;;;;5011042;28;20191;-60
2022/05/27 07:32:36;;;;;;;5.07;3.10;;;17.80;99.70;;;;;;5012117;28;20217;-60
2022/05/27 07:35:04;;;;;;;3.00;2.80;;;17.80;99.70;;;;;;5011555;28;20233;-59
2022/05/27 07:37:30;;;;;;;4.63;2.83;;;17.90;99.80;;;;;;5011044;28;20277;-59
2022/05/27 07:39:56;;;;;;;3.85;2.95;;;18.00;99.50;;;;;;5009522;28;20195;-59
2022/05/27 07:42:22;;;;;;;3.50;2.47;;;18.10;99.10;;;;;;5010976;28;20187;-59
2022/05/27 07:44:47;;;;;;;2.50;2.30;;;18.20;99.00;;;;;;5010171;28;20203;-59
2022/05/27 07:47:13;;;;;;;3.40;2.70;;;18.90;98.60;;;;;;5009975;28;20223;-60
2022/05/27 07:49:38;;;;;;;3.10;2.80;;;19.60;96.80;;;;;;5010801;28;20270;-60
2022/05/27 07:52:06;;;;;;;3.67;3.00;;;19.80;96.00;;;;;;5012223;28;20179;-59
2022/05/27 07:54:31;;;;;;;3.10;2.13;;;20.30;95.30;;;;;;5008402;28;20266;-59
2022/05/27 07:56:57;;;;;;;4.03;3.10;;;20.60;94.40;;;;;;5009402;28;20290;-59
2022/05/27 07:59:23;;;;;;;2.80;2.40;;;20.50;94.20;;;;;;5008184;28;20461;-58
2022/05/27 08:01:49;;;;;;;2.97;2.77;;;20.30;94.40;;;;;;5009937;28;20605;-59
2022/05/27 08:04:14;;;;;;;3.60;2.53;;;20.20;94.30;;;;;;5010574;28;20192;-59
2022/05/27 08:06:40;;;;;;;4.60;2.50;;;19.80;94.90;;;;;;5009631;28;20187;-58
2022/05/27 08:09:06;;;;;;;3.10;2.50;;;19.60;95.30;;;;;;5009491;28;20218;-58
2022/05/27 08:11:31;;;;;;;4.60;2.90;;;19.60;95.20;;;;;;5012185;28;20191;-59
2022/05/27 08:14:00;;;;;;;2.63;2.40;;;19.50;95.30;;;;;;5005656;28;20332;-58
2022/05/27 08:16:26;;;;;;;2.40;2.20;;;19.40;95.40;;;;;;5006306;28;20582;-59
2022/05/27 08:18:52;;;;;;;4.45;2.55;;;19.40;95.40;;;;;;5007126;28;20213;-58
2022/05/27 08:21:18;;;;;;;4.53;2.70;;;19.00;95.30;;;;;;5010719;28;20182;-59
2022/05/27 08:23:43;;;;;;;2.97;2.60;;;19.20;95.70;;;;;;5009902;28;20273;-59
2022/05/27 08:26:09;;;;;;;3.17;2.37;;;18.90;95.80;;;;;;5002996;28;20206;-59
2022/05/27 08:28:34;;;;;;;3.40;2.80;;;19.00;96.00;;;;;;5007749;28;20246;-59
2022/05/27 08:31:13;;;;;;;3.17;2.20;;;19.00;96.00;;;;;;5023656;28;20233;-59
2022/05/27 08:39:12;;;;;;;2.53;2.33;;;19.20;96.00;;;;;;5008328;28;20217;-59
2022/05/27 08:42:04;;;;;;;3.17;2.78;;;19.20;95.80;;;;;;5003951;28;20184;-60
2022/05/27 08:44:57;;;;;;;3.10;2.60;;;19.30;95.80;;;;;;5003351;28;20201;-60
2022/05/27 08:47:31;;;;;;;2.50;2.30;;;19.40;95.70;;;;;;5009464;28;20211;-60
2022/05/27 08:50:07;;;;;;;2.53;2.33;;;19.30;95.60;;;;;;5008532;28;20697;-59
2022/05/27 08:52:38;;;;;;;3.10;2.00;;;19.30;95.90;;;;;;5009459;28;20272;-59
2022/05/27 09:01:20;;;;;;;4.57;2.00;;;18.70;96.70;;;;;;5009299;28;20202;-59
2022/05/27 09:04:09;;;;;;;3.42;2.28;;;19.10;96.90;;;;;;5001678;28;20195;-58
2022/05/27 09:06:44;;;;;;;2.75;2.55;;;18.80;96.80;;;;;;5012971;28;20199;-59
2022/05/27 09:09:24;;;;;;;3.90;3.00;;;18.90;96.70;;;;;;5007323;28;20218;-58
2022/05/27 09:11:56;;;;;;;2.97;2.78;;;18.90;96.30;;;;;;5004891;28;20218;-58
2022/05/27 09:14:25;;;;;;;3.22;2.92;;;19.00;96.00;;;;;;4997837;28;20657;-60
2022/05/27 09:17:07;;;;;;;5.25;3.05;;;19.10;96.20;;;;;;5007946;28;20296;-60
2022/05/27 09:19:58;;;;;;;3.53;3.17;;;20.00;94.90;;;;;;5003891;28;20719;-59
2022/05/27 09:22:26;;;;;;;3.10;2.80;;;20.80;93.40;;;;;;5008715;28;20195;-58
2022/05/27 09:25:17;;;;;;;4.30;2.27;;;22.40;91.10;;;;;;5007107;28;20521;-58
2022/05/27 09:28:06;;;;;;;3.17;2.87;;;23.40;87.80;;;;;;4999687;28;20477;-58
2022/05/27 09:30:34;;;;;;;2.93;2.40;;;25.50;80.10;;;;;;5004739;28;20469;-59
2022/05/27 09:33:07;;;;;;;3.00;2.20;;;27.40;73.10;;;;;;5004673;28;20449;-58
2022/05/27 09:35:37;;;;;;;3.20;2.83;;;28.00;67.80;;;;;;5008900;28;21017;-58
2022/05/27 09:38:06;;;;;;;2.57;2.00;;;28.90;63.20;;;;;;5002183;28;20832;-60
2022/05/27 09:40:46;;;;;;;2.80;2.50;;;28.20;62.20;;;;;;5006448;28;20500;-58
2022/05/27 09:43:24;;;;;;;2.43;2.23;;;27.70;62.90;;;;;;5002023;28;20543;-59
2022/05/27 09:45:58;;;;;;;2.47;2.10;;;28.90;59.90;;;;;;5005085;28;20543;-58
2022/05/27 09:48:25;;;;;;;3.60;2.30;;;28.30;59.40;;;;;;5005771;28;20494;-58
2022/05/27 09:50:51;;;;;;;3.13;2.10;;;27.50;60.00;;;;;;5004873;28;20455;-58
2022/05/27 09:53:27;;;;;;;3.10;2.73;;;26.60;62.20;;;;;;5011442;28;20496;-57
2022/05/27 09:56:02;;;;;;;2.97;2.30;;;25.80;64.10;;;;;;5015185;28;20466;-56
2022/05/27 09:58:33;;;;;;;2.60;2.40;;;25.30;66.50;;;;;;5007939;28;20474;-59
2022/05/27 10:01:01;;;;;;;3.17;2.20;;;24.30;67.30;;;;;;5008911;28;20548;-57
2022/05/27 10:03:37;;;;;;;3.13;2.40;;;23.60;69.60;;;;;;5013174;28;20461;-58
2022/05/27 10:06:07;;;;;;;6.47;2.53;;;23.00;70.90;;;;;;5008872;28;20449;-57
2022/05/27 10:08:44;;;;;;;2.53;2.33;;;22.30;73.50;;;;;;5015051;28;20489;-58
2022/05/27 10:11:30;;;;;;;2.63;2.20;;;22.30;74.00;;;;;;5011421;28;20477;-58
2022/05/27 10:14:18;;;;;;;4.00;2.10;;;23.00;72.80;;;;;;5012126;28;20747;-56
2022/05/27 10:17:04;;;;;;;2.50;2.23;;;24.70;69.10;;;;;;5013536;28;20666;-57
2022/05/27 10:19:30;;;;;;;4.00;2.47;;;24.90;66.50;;;;;;5012746;28;22840;-57
2022/05/27 10:21:59;;;;;;;2.53;2.00;;;24.60;67.50;;;;;;5014215;28;20489;-58
2022/05/27 10:24:29;;;;;;;3.27;1.97;;;24.80;64.70;;;;;;5015240;28;20197;-56
2022/05/27 10:27:12;;;;;;;2.47;2.20;;;25.30;61.50;;;;;;5028934;28;20447;-57
2022/05/27 10:29:53;;;;;;;5.10;2.37;;;25.70;60.20;;;;;;5011394;28;20822;-58
2022/05/27 10:32:28;;;;;;;3.27;2.10;;;25.70;60.70;;;;;;5030397;28;20468;-57
2022/05/27 10:34:54;;;;;;;2.03;1.93;;;25.60;61.20;;;;;;5014295;28;20849;-57
2022/05/27 10:37:46;;;;;;;4.13;2.20;;;24.90;62.80;;;;;;5010513;28;20447;-57
2022/05/27 10:40:28;;;;;;;2.73;2.00;;;24.60;65.10;;;;;;5013696;28;20800;-58
2022/05/27 10:43:11;;;;;;;2.03;1.90;;;24.70;64.00;;;;;;5012894;28;20451;-56
2022/05/27 10:45:44;;;;;;;2.40;2.20;;;24.30;63.50;;;;;;5010272;28;20446;-58
2022/05/27 10:48:51;;;;;;;2.20;2.00;;;24.10;64.20;;;;;;5014613;28;21039;-58
2022/05/27 10:51:51;;;;;;;2.10;1.90;;;23.90;64.60;;;;;;5007853;28;20456;-58
2022/05/27 10:54:59;;;;;;;2.03;1.60;;;23.90;64.80;;;;;;5014515;28;20446;-58
2022/05/27 11:04:15;;;;;;;1.90;1.60;;;23.90;65.90;;;;;;5015503;28;20523;-58
2022/05/27 11:07:06;;;;;;;5.03;2.03;;;23.70;65.90;;;;;;5015693;28;20973;-56
2022/05/27 11:09:50;;;;;;;2.60;2.17;;;23.50;64.80;;;;;;5016851;28;20472;-57
2022/05/27 11:15:10;;;;;;;2.73;2.53;;;23.00;66.60;;;;;;5015341;28;20430;-56
2022/05/27 11:15:34;;;;;;;2.13;1.93;;;22.70;67.80;;;;;;5009498;28;20985;-58
2022/05/27 11:18:23;;;;;;;2.70;2.50;;;22.50;68.30;;;;;;5011529;28;20456;-58
2022/05/27 11:21:10;;;;;;;2.07;1.87;;;22.40;69.40;;;;;;5010153;28;20437;-58
2022/05/27 11:23:36;;;;;;;2.30;1.60;;;22.40;68.70;;;;;;5011304;28;20453;-58
2022/05/27 11:26:15;;;;;;;2.60;2.13;;;22.30;69.30;;;;;;5014043;28;20429;-56
2022/05/27 11:29:09;;;;;;;1.93;1.83;;;22.40;69.30;;;;;;5015166;28;20214;-58
2022/05/27 11:31:48;;;;;;;2.22;1.60;;;22.30;69.00;;;;;;5031852;28;20446;-57
2022/05/27 11:34:34;;;;;;;3.50;1.77;;;22.10;69.40;;;;;;5018277;28;20191;-57
2022/05/27 11:37:40;;;;;;;2.43;1.87;;;22.10;70.40;;;;;;5016532;28;20449;-56
2022/05/27 11:40:29;;;;;;;1.90;1.43;;;22.10;70.70;;;;;;5015228;28;20437;-57
2022/05/27 11:43:26;;;;;;;1.90;1.80;;;22.10;70.90;;;;;;5001035;28;20512;-57
2022/05/27 11:46:09;;;;;;;3.27;2.30;;;22.20;70.40;;;;;;5006457;28;20450;-58
2022/05/27 11:48:58;;;;;;;3.90;2.60;;;22.00;71.70;;;;;;5009989;28;20513;-59
2022/05/27 11:51:23;;;;;;;3.00;1.90;;;21.90;72.30;;;;;;5009105;28;20492;-59
2022/05/27 11:54:08;;;;;;;2.83;2.10;;;21.90;72.30;;;;;;5010315;28;20903;-59
2022/05/27 11:56:52;;;;;;;4.90;2.10;;;21.80;72.40;;;;;;5007193;28;20253;-59
2022/05/27 11:59:21;;;;;;;2.20;2.00;;;21.90;73.30;;;;;;5010450;28;20555;-56
2022/05/27 12:02:01;;;;;;;3.08;2.13;;;21.90;73.70;;;;;;5007224;28;21003;-58
2022/05/27 12:04:46;;;;;;;3.00;2.50;;;22.10;73.50;;;;;;5011175;28;20196;-58
2022/05/27 12:07:41;;;;;;;1.83;1.73;;;22.30;73.00;;;;;;5002768;28;20950;-58
2022/05/27 12:10:44;;;;;;;1.83;1.73;;;22.20;72.50;;;;;;5008778;28;21013;-58
2022/05/27 12:13:44;;;;;;;3.87;2.23;;;22.30;73.30;;;;;;5011062;28;20874;-58
2022/05/27 12:16:23;;;;;;;2.33;2.17;;;22.70;72.00;;;;;;5004105;28;21210;-58
2022/05/27 12:19:01;;;;;;;1.80;1.70;;;22.90;72.00;;;;;;5008448;28;20466;-58
2022/05/27 12:21:42;;;;;;;3.10;2.37;;;23.10;71.50;;;;;;5008505;28;20453;-58
2022/05/27 12:24:34;;;;;;;1.60;1.50;;;23.40;71.30;;;;;;5006090;28;20449;-58
2022/05/27 12:27:02;;;;;;;2.83;2.40;;;23.30;70.50;;;;;;5009718;28;20969;-59
2022/05/27 12:29:29;;;;;;;4.40;1.80;;;23.30;70.80;;;;;;5010100;28;20474;-59
2022/05/27 12:31:56;;;;;;;1.87;1.63;;;23.50;70.90;;;;;;5009739;28;20892;-59
2022/05/27 12:34:27;;;;;;;3.00;1.93;;;23.50;70.30;;;;;;5011375;28;20995;-59
2022/05/27 12:37:14;;;;;;;2.20;2.00;;;23.60;70.50;;;;;;5009905;28;20432;-58
2022/05/27 12:39:44;;;;;;;3.70;2.27;;;23.70;70.70;;;;;;5009382;28;21239;-58
2022/05/27 12:42:35;;;;;;;1.73;1.63;;;23.90;70.60;;;;;;5009678;28;20445;-59
2022/05/27 12:45:29;;;;;;;2.23;1.83;;;23.90;69.50;;;;;;5008472;28;20881;-58
2022/05/27 12:47:55;;;;;;;2.60;1.97;;;24.10;69.80;;;;;;5006624;28;20489;-59
2022/05/27 12:50:30;;;;;;;1.87;1.77;;;23.90;69.90;;;;;;5008923;28;20450;-58
2022/05/27 12:53:17;;;;;;;1.97;1.77;;;23.80;69.50;;;;;;5010551;28;20190;-58
2022/05/27 13:02:21;;;;;;;2.73;2.03;;;24.10;72.10;;;;;;5006454;28;20576;-58
2022/05/27 13:04:48;;;;;;;5.13;4.70;;;23.30;71.70;;;;;;5006500;28;20815;-58
2022/05/27 13:07:15;;;;;;;2.20;2.10;;;23.10;72.60;;;;;;5009848;28;20508;-58
2022/05/27 13:09:44;;;;;;;2.20;2.00;;;23.10;73.40;;;;;;5009091;28;20489;-58
2022/05/27 13:12:30;;;;;;;2.23;2.10;;;22.90;73.10;;;;;;5009898;28;20474;-58
2022/05/27 13:15:06;;;;;;;3.30;1.90;;;22.70;73.90;;;;;;5006669;28;20449;-58
2022/05/27 13:17:35;;;;;;;2.23;2.03;;;22.50;74.80;;;;;;5006380;28;20459;-58
2022/05/27 13:20:07;;;;;;;2.23;2.03;;;22.40;75.30;;;;;;5004478;28;20445;-57
2022/05/27 13:22:34;;;;;;;2.00;1.90;;;22.40;75.60;;;;;;5007042;28;20437;-58
2022/05/27 13:25:26;;;;;;;2.20;2.00;;;22.30;75.30;;;;;;5008655;28;20569;-58
2022/05/27 13:28:27;;;;;;;2.63;2.30;;;22.20;76.00;;;;;;5002647;28;20498;-58
2022/05/27 13:31:05;;;;;;;2.00;1.90;;;22.20;76.00;;;;;;5007983;28;20551;-58
2022/05/27 13:34:00;;;;;;;2.00;1.90;;;22.30;76.10;;;;;;5005725;28;20444;-59
2022/05/27 13:36:32;;;;;;;2.63;1.70;;;22.20;75.00;;;;;;4999838;28;20225;-58
2022/05/27 13:39:02;;;;;;;2.53;2.27;;;22.30;75.30;;;;;;5009843;28;20553;-58
2022/05/27 13:41:41;;;;;;;2.33;1.70;;;22.20;75.30;;;;;;5007097;28;20521;-58
2022/05/27 13:44:10;;;;;;;2.07;1.97;;;22.20;76.00;;;;;;5004590;28;20488;-58
2022/05/27 13:46:41;;;;;;;1.70;1.60;;;22.30;76.00;;;;;;5005657;28;20528;-58
2022/05/27 13:49:30;;;;;;;1.57;1.47;;;22.20;75.80;;;;;;5006056;28;20259;-59
2022/05/27 13:51:57;;;;;;;1.97;1.87;;;22.10;75.70;;;;;;5008796;28;20461;-59
2022/05/27 13:54:35;;;;;;;2.33;2.13;;;22.10;75.80;;;;;;5008629;28;20564;-59
2022/05/27 13:57:05;;;;;;;2.97;1.60;;;22.10;76.00;;;;;;5006513;28;20453;-59
2022/05/27 13:59:46;;;;;;;2.23;2.00;;;22.20;76.20;;;;;;5006523;28;20608;-58